TimePST,TemperatureF,Dew PointF,Humidity,Sea Level PressureIn,VisibilityMPH,Wind Direction,Wind SpeedMPH,Gust SpeedMPH,PrecipitationIn,Events,Conditions,WindDirDegrees,DateUTC
12:53 AM,43.0,30.9,62,30.23,10.0,WNW,20.7,28.8,N/A,,Clear,300,2013-02-12 08:53:00
1:53 AM,42.1,30.9,65,30.23,10.0,WNW,16.1,-,N/A,,Mostly Cloudy,290,2013-02-12 09:53:00
2:53 AM,42.1,30.9,65,30.24,10.0,WNW,12.7,21.9,N/A,,Clear,300,2013-02-12 10:53:00
3:53 AM,42.1,30.9,65,30.24,10.0,WNW,12.7,-,N/A,,Clear,290,2013-02-12 11:53:00
4:53 AM,44.1,28.9,55,30.26,10.0,WNW,19.6,26.5,N/A,,Clear,290,2013-02-12 12:53:00
5:53 AM,44.1,30.9,60,30.26,10.0,West,23.0,26.5,N/A,,Clear,280,2013-02-12 13:53:00
6:53 AM,44.1,30.9,60,30.27,10.0,WNW,20.7,26.5,N/A,,Partly Cloudy,290,2013-02-12 14:53:00
7:53 AM,44.1,30.9,60,30.28,10.0,WNW,17.3,-,N/A,,Partly Cloudy,290,2013-02-12 15:53:00
8:53 AM,44.1,30.9,60,30.29,10.0,WNW,17.3,25.3,N/A,,Clear,290,2013-02-12 16:53:00
9:53 AM,46.0,30.0,54,30.30,10.0,WNW,24.2,29.9,N/A,,Clear,300,2013-02-12 17:53:00
10:53 AM,46.9,30.0,52,30.30,10.0,WNW,18.4,25.3,N/A,,Clear,290,2013-02-12 18:53:00
11:53 AM,50.0,32.0,50,30.29,10.0,WNW,23.0,31.1,N/A,,Clear,290,2013-02-12 19:53:00
12:53 PM,52.0,35.1,53,30.28,10.0,NW,21.9,27.6,N/A,,Partly Cloudy,320,2013-02-12 20:53:00
1:53 PM,51.1,35.1,54,30.26,10.0,NW,24.2,28.8,N/A,,Overcast,320,2013-02-12 21:53:00
2:53 PM,51.1,35.1,54,30.26,10.0,NW,18.4,-,N/A,,Overcast,320,2013-02-12 22:53:00
3:53 PM,52.0,34.0,50,30.26,10.0,NW,18.4,25.3,N/A,,Mostly Cloudy,320,2013-02-12 23:53:00
4:53 PM,50.0,33.1,52,30.25,10.0,NNW,12.7,-,N/A,,Mostly Cloudy,330,2013-02-13 00:53:00
5:53 PM,45.0,32.0,60,30.25,10.0,NW,11.5,-,N/A,,Clear,310,2013-02-13 01:53:00
6:53 PM,43.0,33.1,68,30.24,10.0,West,8.1,-,N/A,,Scattered Clouds,270,2013-02-13 02:53:00
7:53 PM,46.0,35.1,66,30.22,10.0,NW,16.1,-,N/A,,Overcast,320,2013-02-13 03:53:00
8:53 PM,46.9,35.1,63,30.22,10.0,NW,11.5,-,N/A,,Overcast,310,2013-02-13 04:53:00
9:53 PM,45.0,34.0,65,30.21,10.0,WNW,6.9,-,N/A,,Overcast,300,2013-02-13 05:53:00
10:53 PM,45.0,35.1,68,30.21,10.0,West,4.6,-,N/A,,Mostly Cloudy,260,2013-02-13 06:53:00
11:53 PM,45.0,35.1,68,30.20,10.0,West,4.6,-,N/A,,Overcast,280,2013-02-13 07:53:00